sensor_id;sensor_type;location;lat;lon;timestamp;temperature;humidity
5508;DHT22;2776;51.046;6.772;2022-07-23T00:01:00;18.50;99.90
5508;DHT22;2776;51.046;6.772;2022-07-23T00:03:27;18.50;99.90
5508;DHT22;2776;51.046;6.772;2022-07-23T00:05:53;18.50;99.90
5508;DHT22;2776;51.046;6.772;2022-07-23T00:08:20;18.50;99.90
5508;DHT22;2776;51.046;6.772;2022-07-23T00:10:48;18.50;99.90
5508;DHT22;2776;51.046;6.772;2022-07-23T00:13:15;18.40;99.90
5508;DHT22;2776;51.046;6.772;2022-07-23T00:15:42;18.40;99.90
5508;DHT22;2776;51.046;6.772;2022-07-23T00:18:09;18.40;99.90
5508;DHT22;2776;51.046;6.772;2022-07-23T00:20:35;18.40;99.90
5508;DHT22;2776;51.046;6.772;2022-07-23T00:23:02;18.40;99.90
5508;DHT22;2776;51.046;6.772;2022-07-23T00:25:29;18.50;99.90
5508;DHT22;2776;51.046;6.772;2022-07-23T00:27:57;18.50;99.90
5508;DHT22;2776;51.046;6.772;2022-07-23T00:30:24;18.50;99.90
5508;DHT22;2776;51.046;6.772;2022-07-23T00:32:53;18.50;99.90
5508;DHT22;2776;51.046;6.772;2022-07-23T00:35:22;18.50;99.90
5508;DHT22;2776;51.046;6.772;2022-07-23T00:37:49;18.50;99.90
5508;DHT22;2776;51.046;6.772;2022-07-23T00:40:16;18.50;99.90
5508;DHT22;2776;51.046;6.772;2022-07-23T00:42:43;18.50;99.90
5508;DHT22;2776;51.046;6.772;2022-07-23T00:45:11;18.40;99.90
5508;DHT22;2776;51.046;6.772;2022-07-23T00:47:38;18.30;99.90
5508;DHT22;2776;51.046;6.772;2022-07-23T00:50:07;18.30;99.90
5508;DHT22;2776;51.046;6.772;2022-07-23T00:52:34;18.30;99.90
5508;DHT22;2776;51.046;6.772;2022-07-23T00:55:03;18.30;99.90
5508;DHT22;2776;51.046;6.772;2022-07-23T00:57:30;18.30;99.90
5508;DHT22;2776;51.046;6.772;2022-07-23T00:59:57;18.30;99.90
5508;DHT22;2776;51.046;6.772;2022-07-23T01:02:25;18.30;99.90
5508;DHT22;2776;51.046;6.772;2022-07-23T01:04:53;18.40;99.90
5508;DHT22;2776;51.046;6.772;2022-07-23T01:07:20;18.40;99.90
5508;DHT22;2776;51.046;6.772;2022-07-23T01:09:49;18.40;99.90
5508;DHT22;2776;51.046;6.772;2022-07-23T01:12:16;18.40;99.90
5508;DHT22;2776;51.046;6.772;2022-07-23T01:14:43;18.40;99.90
5508;DHT22;2776;51.046;6.772;2022-07-23T01:17:10;18.40;99.90
5508;DHT22;2776;51.046;6.772;2022-07-23T01:19:38;18.40;99.90
5508;DHT22;2776;51.046;6.772;2022-07-23T01:22:05;18.40;99.90
5508;DHT22;2776;51.046;6.772;2022-07-23T01:24:33;18.40;99.90
5508;DHT22;2776;51.046;6.772;2022-07-23T01:27:00;18.50;99.90
5508;DHT22;2776;51.046;6.772;2022-07-23T01:29:27;18.50;99.90
5508;DHT22;2776;51.046;6.772;2022-07-23T01:31:53;18.50;99.90
5508;DHT22;2776;51.046;6.772;2022-07-23T01:34:20;18.50;99.90
5508;DHT22;2776;51.046;6.772;2022-07-23T01:36:47;18.50;99.90
5508;DHT22;2776;51.046;6.772;2022-07-23T01:39:14;18.40;99.90
5508;DHT22;2776;51.046;6.772;2022-07-23T01:41:42;18.40;99.90
5508;DHT22;2776;51.046;6.772;2022-07-23T01:44:09;18.40;99.90
5508;DHT22;2776;51.046;6.772;2022-07-23T01:46:35;18.30;99.90
5508;DHT22;2776;51.046;6.772;2022-07-23T01:49:02;18.20;99.90
5508;DHT22;2776;51.046;6.772;2022-07-23T01:51:29;18.10;99.90
5508;DHT22;2776;51.046;6.772;2022-07-23T01:53:55;18.10;99.90
5508;DHT22;2776;51.046;6.772;2022-07-23T01:56:22;18.10;99.90
5508;DHT22;2776;51.046;6.772;2022-07-23T01:58:50;18.00;99.90
5508;DHT22;2776;51.046;6.772;2022-07-23T02:01:17;17.90;99.90
5508;DHT22;2776;51.046;6.772;2022-07-23T02:03:44;17.80;99.90
5508;DHT22;2776;51.046;6.772;2022-07-23T02:06:11;17.80;99.90
5508;DHT22;2776;51.046;6.772;2022-07-23T02:08:37;17.70;99.90
5508;DHT22;2776;51.046;6.772;2022-07-23T02:11:04;17.60;99.90
5508;DHT22;2776;51.046;6.772;2022-07-23T02:13:31;17.60;99.90
5508;DHT22;2776;51.046;6.772;2022-07-23T02:15:59;17.50;99.90
5508;DHT22;2776;51.046;6.772;2022-07-23T02:18:26;17.50;99.90
5508;DHT22;2776;51.046;6.772;2022-07-23T02:20:53;17.50;99.90
5508;DHT22;2776;51.046;6.772;2022-07-23T02:23:20;17.50;99.90
5508;DHT22;2776;51.046;6.772;2022-07-23T02:25:46;17.40;99.90
5508;DHT22;2776;51.046;6.772;2022-07-23T02:28:13;17.40;99.90
5508;DHT22;2776;51.046;6.772;2022-07-23T02:30:40;17.40;99.90
5508;DHT22;2776;51.046;6.772;2022-07-23T02:33:09;17.30;99.90
5508;DHT22;2776;51.046;6.772;2022-07-23T02:35:36;17.30;99.90
5508;DHT22;2776;51.046;6.772;2022-07-23T02:38:02;17.30;99.90
5508;DHT22;2776;51.046;6.772;2022-07-23T02:40:29;17.30;99.90
5508;DHT22;2776;51.046;6.772;2022-07-23T02:42:56;17.30;99.90
5508;DHT22;2776;51.046;6.772;2022-07-23T02:45:23;17.20;99.90
5508;DHT22;2776;51.046;6.772;2022-07-23T02:47:50;17.10;99.90
5508;DHT22;2776;51.046;6.772;2022-07-23T02:50:18;17.10;99.90
5508;DHT22;2776;51.046;6.772;2022-07-23T02:52:45;17.00;99.90
5508;DHT22;2776;51.046;6.772;2022-07-23T02:55:12;16.90;99.90
5508;DHT22;2776;51.046;6.772;2022-07-23T02:57:38;16.90;99.90
5508;DHT22;2776;51.046;6.772;2022-07-23T03:00:06;16.80;99.90
5508;DHT22;2776;51.046;6.772;2022-07-23T03:02:33;16.80;99.90
5508;DHT22;2776;51.046;6.772;2022-07-23T03:05:00;16.80;99.90
5508;DHT22;2776;51.046;6.772;2022-07-23T03:07:29;16.70;99.90
5508;DHT22;2776;51.046;6.772;2022-07-23T03:09:55;16.70;99.90
5508;DHT22;2776;51.046;6.772;2022-07-23T03:12:22;16.60;99.90
5508;DHT22;2776;51.046;6.772;2022-07-23T03:14:49;16.60;99.90
5508;DHT22;2776;51.046;6.772;2022-07-23T03:17:16;16.60;99.90
5508;DHT22;2776;51.046;6.772;2022-07-23T03:19:42;16.60;99.90
5508;DHT22;2776;51.046;6.772;2022-07-23T03:22:09;16.60;99.90
5508;DHT22;2776;51.046;6.772;2022-07-23T03:24:37;16.50;99.90
5508;DHT22;2776;51.046;6.772;2022-07-23T03:27:24;16.50;99.90
5508;DHT22;2776;51.046;6.772;2022-07-23T03:29:51;16.50;99.90
5508;DHT22;2776;51.046;6.772;2022-07-23T03:32:18;16.50;99.90
5508;DHT22;2776;51.046;6.772;2022-07-23T03:34:44;16.50;99.90
5508;DHT22;2776;51.046;6.772;2022-07-23T03:37:12;16.40;99.90
5508;DHT22;2776;51.046;6.772;2022-07-23T03:39:40;16.40;99.90
5508;DHT22;2776;51.046;6.772;2022-07-23T03:42:07;16.40;99.90
5508;DHT22;2776;51.046;6.772;2022-07-23T03:44:34;16.40;99.90
5508;DHT22;2776;51.046;6.772;2022-07-23T03:47:02;16.30;99.90
5508;DHT22;2776;51.046;6.772;2022-07-23T03:49:29;16.30;99.90
5508;DHT22;2776;51.046;6.772;2022-07-23T03:51:55;16.30;99.90
5508;DHT22;2776;51.046;6.772;2022-07-23T03:54:22;16.30;99.90
5508;DHT22;2776;51.046;6.772;2022-07-23T03:56:51;16.30;99.90
5508;DHT22;2776;51.046;6.772;2022-07-23T03:59:18;16.30;99.90
5508;DHT22;2776;51.046;6.772;2022-07-23T04:01:44;16.30;99.90
5508;DHT22;2776;51.046;6.772;2022-07-23T04:04:11;16.40;99.90
5508;DHT22;2776;51.046;6.772;2022-07-23T04:06:38;16.40;99.90
5508;DHT22;2776;51.046;6.772;2022-07-23T04:09:05;16.40;99.90
5508;DHT22;2776;51.046;6.772;2022-07-23T04:11:31;16.40;99.90
5508;DHT22;2776;51.046;6.772;2022-07-23T04:14:00;16.40;99.90
5508;DHT22;2776;51.046;6.772;2022-07-23T04:16:26;16.50;99.90
5508;DHT22;2776;51.046;6.772;2022-07-23T04:18:54;16.50;99.90
5508;DHT22;2776;51.046;6.772;2022-07-23T04:21:20;16.50;99.90
5508;DHT22;2776;51.046;6.772;2022-07-23T04:23:47;16.60;99.90
5508;DHT22;2776;51.046;6.772;2022-07-23T04:26:14;16.60;99.90
5508;DHT22;2776;51.046;6.772;2022-07-23T04:28:41;16.70;99.90
5508;DHT22;2776;51.046;6.772;2022-07-23T04:31:09;16.70;99.90
5508;DHT22;2776;51.046;6.772;2022-07-23T04:33:36;16.80;99.90
5508;DHT22;2776;51.046;6.772;2022-07-23T04:36:03;16.90;99.90
5508;DHT22;2776;51.046;6.772;2022-07-23T04:38:30;16.90;99.90
5508;DHT22;2776;51.046;6.772;2022-07-23T04:40:58;17.00;99.90
5508;DHT22;2776;51.046;6.772;2022-07-23T04:43:24;17.10;99.90
5508;DHT22;2776;51.046;6.772;2022-07-23T04:45:51;17.10;99.90
5508;DHT22;2776;51.046;6.772;2022-07-23T04:48:19;17.20;99.90
5508;DHT22;2776;51.046;6.772;2022-07-23T04:50:46;17.20;99.90
5508;DHT22;2776;51.046;6.772;2022-07-23T04:53:13;17.30;99.90
5508;DHT22;2776;51.046;6.772;2022-07-23T04:55:40;17.40;99.90
5508;DHT22;2776;51.046;6.772;2022-07-23T04:58:06;17.40;99.90
5508;DHT22;2776;51.046;6.772;2022-07-23T05:00:33;17.40;99.90
5508;DHT22;2776;51.046;6.772;2022-07-23T05:03:00;17.60;99.90
5508;DHT22;2776;51.046;6.772;2022-07-23T05:05:28;17.70;99.90
5508;DHT22;2776;51.046;6.772;2022-07-23T05:07:55;17.80;99.90
5508;DHT22;2776;51.046;6.772;2022-07-23T05:10:22;17.90;99.90
5508;DHT22;2776;51.046;6.772;2022-07-23T05:12:48;18.10;99.90
5508;DHT22;2776;51.046;6.772;2022-07-23T05:15:15;18.20;99.90
5508;DHT22;2776;51.046;6.772;2022-07-23T05:17:42;18.40;99.90
5508;DHT22;2776;51.046;6.772;2022-07-23T05:20:09;18.40;99.90
5508;DHT22;2776;51.046;6.772;2022-07-23T05:22:38;18.60;99.90
5508;DHT22;2776;51.046;6.772;2022-07-23T05:25:05;18.70;99.90
5508;DHT22;2776;51.046;6.772;2022-07-23T05:27:32;18.90;99.90
5508;DHT22;2776;51.046;6.772;2022-07-23T05:29:59;19.00;99.90
5508;DHT22;2776;51.046;6.772;2022-07-23T05:32:26;19.20;99.90
5508;DHT22;2776;51.046;6.772;2022-07-23T05:34:53;19.30;99.90
5508;DHT22;2776;51.046;6.772;2022-07-23T05:37:20;19.50;99.90
5508;DHT22;2776;51.046;6.772;2022-07-23T05:39:48;19.60;99.90
5508;DHT22;2776;51.046;6.772;2022-07-23T05:42:15;19.80;99.90
5508;DHT22;2776;51.046;6.772;2022-07-23T05:44:42;20.00;99.90
5508;DHT22;2776;51.046;6.772;2022-07-23T05:47:09;20.40;99.90
5508;DHT22;2776;51.046;6.772;2022-07-23T05:49:37;20.70;99.90
5508;DHT22;2776;51.046;6.772;2022-07-23T05:52:05;21.10;99.90
5508;DHT22;2776;51.046;6.772;2022-07-23T05:54:34;21.50;99.90
5508;DHT22;2776;51.046;6.772;2022-07-23T05:57:03;21.80;99.90
5508;DHT22;2776;51.046;6.772;2022-07-23T05:59:30;22.00;99.90
5508;DHT22;2776;51.046;6.772;2022-07-23T06:01:57;22.10;99.90
5508;DHT22;2776;51.046;6.772;2022-07-23T06:04:24;22.40;99.90
5508;DHT22;2776;51.046;6.772;2022-07-23T06:06:51;22.80;99.90
5508;DHT22;2776;51.046;6.772;2022-07-23T06:09:18;23.20;99.90
5508;DHT22;2776;51.046;6.772;2022-07-23T06:11:45;23.80;99.90
5508;DHT22;2776;51.046;6.772;2022-07-23T06:14:13;24.50;99.90
5508;DHT22;2776;51.046;6.772;2022-07-23T06:16:40;25.40;99.90
5508;DHT22;2776;51.046;6.772;2022-07-23T06:19:06;26.00;99.90
5508;DHT22;2776;51.046;6.772;2022-07-23T06:21:33;27.00;99.90
5508;DHT22;2776;51.046;6.772;2022-07-23T06:24:00;27.50;99.90
5508;DHT22;2776;51.046;6.772;2022-07-23T06:26:27;28.10;99.90
5508;DHT22;2776;51.046;6.772;2022-07-23T06:28:54;28.60;99.90
5508;DHT22;2776;51.046;6.772;2022-07-23T06:31:22;28.60;99.90
5508;DHT22;2776;51.046;6.772;2022-07-23T06:33:49;28.40;99.90
5508;DHT22;2776;51.046;6.772;2022-07-23T06:36:15;28.20;99.90
5508;DHT22;2776;51.046;6.772;2022-07-23T06:38:42;27.60;99.90
5508;DHT22;2776;51.046;6.772;2022-07-23T06:41:09;26.90;99.90
5508;DHT22;2776;51.046;6.772;2022-07-23T06:43:36;26.50;99.90
5508;DHT22;2776;51.046;6.772;2022-07-23T06:46:03;26.00;99.90
5508;DHT22;2776;51.046;6.772;2022-07-23T06:48:31;25.70;99.90
5508;DHT22;2776;51.046;6.772;2022-07-23T06:50:59;25.10;99.90
5508;DHT22;2776;51.046;6.772;2022-07-23T06:53:26;24.80;99.90
5508;DHT22;2776;51.046;6.772;2022-07-23T06:55:53;24.50;99.90
5508;DHT22;2776;51.046;6.772;2022-07-23T06:58:20;24.20;99.90
5508;DHT22;2776;51.046;6.772;2022-07-23T07:00:46;24.10;99.90
5508;DHT22;2776;51.046;6.772;2022-07-23T07:03:13;24.10;99.90
5508;DHT22;2776;51.046;6.772;2022-07-23T07:05:41;23.90;99.90
5508;DHT22;2776;51.046;6.772;2022-07-23T07:08:08;23.80;99.90
5508;DHT22;2776;51.046;6.772;2022-07-23T07:10:35;23.70;99.90
5508;DHT22;2776;51.046;6.772;2022-07-23T07:13:02;23.60;99.90
5508;DHT22;2776;51.046;6.772;2022-07-23T07:15:28;23.50;99.90
5508;DHT22;2776;51.046;6.772;2022-07-23T07:17:55;23.40;99.90
5508;DHT22;2776;51.046;6.772;2022-07-23T07:20:22;23.50;99.90
5508;DHT22;2776;51.046;6.772;2022-07-23T07:22:51;23.50;99.90
5508;DHT22;2776;51.046;6.772;2022-07-23T07:25:17;23.40;99.90
5508;DHT22;2776;51.046;6.772;2022-07-23T07:27:44;23.40;99.90
5508;DHT22;2776;51.046;6.772;2022-07-23T07:30:11;23.50;99.90
5508;DHT22;2776;51.046;6.772;2022-07-23T07:32:38;23.50;99.90
5508;DHT22;2776;51.046;6.772;2022-07-23T07:35:06;23.60;99.90
5508;DHT22;2776;51.046;6.772;2022-07-23T07:37:33;23.50;99.90
5508;DHT22;2776;51.046;6.772;2022-07-23T07:40:01;23.60;99.90
5508;DHT22;2776;51.046;6.772;2022-07-23T07:42:28;23.50;99.90
5508;DHT22;2776;51.046;6.772;2022-07-23T07:44:57;23.50;99.90
5508;DHT22;2776;51.046;6.772;2022-07-23T07:47:25;23.50;99.90
5508;DHT22;2776;51.046;6.772;2022-07-23T07:49:52;23.70;99.90
5508;DHT22;2776;51.046;6.772;2022-07-23T07:52:19;23.60;99.90
5508;DHT22;2776;51.046;6.772;2022-07-23T07:54:46;23.80;99.90
5508;DHT22;2776;51.046;6.772;2022-07-23T07:57:14;23.90;99.90
5508;DHT22;2776;51.046;6.772;2022-07-23T07:59:41;23.90;99.90
5508;DHT22;2776;51.046;6.772;2022-07-23T08:02:07;24.00;99.90
5508;DHT22;2776;51.046;6.772;2022-07-23T08:04:34;24.10;99.90
5508;DHT22;2776;51.046;6.772;2022-07-23T08:07:01;24.10;99.90
5508;DHT22;2776;51.046;6.772;2022-07-23T08:09:28;24.10;99.90
5508;DHT22;2776;51.046;6.772;2022-07-23T08:11:54;24.20;99.90
5508;DHT22;2776;51.046;6.772;2022-07-23T08:14:22;24.30;99.90
5508;DHT22;2776;51.046;6.772;2022-07-23T08:16:49;24.50;99.90
5508;DHT22;2776;51.046;6.772;2022-07-23T08:19:16;24.70;99.90
5508;DHT22;2776;51.046;6.772;2022-07-23T08:21:43;25.00;99.90
5508;DHT22;2776;51.046;6.772;2022-07-23T08:24:10;25.10;99.90
5508;DHT22;2776;51.046;6.772;2022-07-23T08:26:36;25.00;99.90
5508;DHT22;2776;51.046;6.772;2022-07-23T08:29:03;25.00;99.90
5508;DHT22;2776;51.046;6.772;2022-07-23T08:31:31;25.00;99.90
5508;DHT22;2776;51.046;6.772;2022-07-23T08:33:59;25.10;99.90
5508;DHT22;2776;51.046;6.772;2022-07-23T08:36:28;25.30;99.90
5508;DHT22;2776;51.046;6.772;2022-07-23T08:38:57;25.80;99.90
5508;DHT22;2776;51.046;6.772;2022-07-23T08:41:24;25.80;99.90
5508;DHT22;2776;51.046;6.772;2022-07-23T08:43:51;25.80;99.90
5508;DHT22;2776;51.046;6.772;2022-07-23T08:46:19;25.70;99.90
5508;DHT22;2776;51.046;6.772;2022-07-23T08:48:48;25.40;99.90
5508;DHT22;2776;51.046;6.772;2022-07-23T08:51:15;25.30;99.90
5508;DHT22;2776;51.046;6.772;2022-07-23T08:53:43;25.00;99.90
5508;DHT22;2776;51.046;6.772;2022-07-23T08:56:10;24.90;99.90
5508;DHT22;2776;51.046;6.772;2022-07-23T08:58:37;24.90;99.90
5508;DHT22;2776;51.046;6.772;2022-07-23T09:01:04;24.80;99.90
5508;DHT22;2776;51.046;6.772;2022-07-23T09:03:35;24.80;99.90
5508;DHT22;2776;51.046;6.772;2022-07-23T09:06:03;24.70;99.90
5508;DHT22;2776;51.046;6.772;2022-07-23T09:08:36;24.70;99.90
5508;DHT22;2776;51.046;6.772;2022-07-23T09:11:04;24.70;99.90
5508;DHT22;2776;51.046;6.772;2022-07-23T09:13:34;24.70;99.90
5508;DHT22;2776;51.046;6.772;2022-07-23T09:16:04;24.90;99.90
5508;DHT22;2776;51.046;6.772;2022-07-23T09:18:37;24.90;99.90
5508;DHT22;2776;51.046;6.772;2022-07-23T09:21:22;24.90;99.90
5508;DHT22;2776;51.046;6.772;2022-07-23T09:23:54;24.80;99.90
5508;DHT22;2776;51.046;6.772;2022-07-23T09:26:33;24.70;99.90
5508;DHT22;2776;51.046;6.772;2022-07-23T09:29:03;24.60;99.90
5508;DHT22;2776;51.046;6.772;2022-07-23T09:31:44;24.60;99.90
5508;DHT22;2776;51.046;6.772;2022-07-23T09:34:13;24.50;99.90
5508;DHT22;2776;51.046;6.772;2022-07-23T09:36:42;24.50;99.90
5508;DHT22;2776;51.046;6.772;2022-07-23T09:39:10;24.60;99.90
5508;DHT22;2776;51.046;6.772;2022-07-23T09:41:39;24.70;99.90
5508;DHT22;2776;51.046;6.772;2022-07-23T09:44:13;24.60;99.90
5508;DHT22;2776;51.046;6.772;2022-07-23T09:46:40;24.60;99.90
5508;DHT22;2776;51.046;6.772;2022-07-23T09:49:15;24.60;99.90
5508;DHT22;2776;51.046;6.772;2022-07-23T09:51:52;24.50;99.90
5508;DHT22;2776;51.046;6.772;2022-07-23T09:54:25;24.40;99.90
5508;DHT22;2776;51.046;6.772;2022-07-23T09:56:52;24.40;99.90
5508;DHT22;2776;51.046;6.772;2022-07-23T09:59:23;24.30;99.90
5508;DHT22;2776;51.046;6.772;2022-07-23T10:01:52;24.50;99.90
5508;DHT22;2776;51.046;6.772;2022-07-23T10:04:21;24.60;99.90
5508;DHT22;2776;51.046;6.772;2022-07-23T10:06:49;24.60;99.90
5508;DHT22;2776;51.046;6.772;2022-07-23T10:09:23;24.60;99.90
5508;DHT22;2776;51.046;6.772;2022-07-23T10:11:50;24.60;99.90
5508;DHT22;2776;51.046;6.772;2022-07-23T10:14:18;24.60;99.90
5508;DHT22;2776;51.046;6.772;2022-07-23T10:16:45;24.60;99.90
5508;DHT22;2776;51.046;6.772;2022-07-23T10:19:12;24.40;99.90
5508;DHT22;2776;51.046;6.772;2022-07-23T10:21:44;24.50;99.90
5508;DHT22;2776;51.046;6.772;2022-07-23T10:24:19;24.40;99.90
5508;DHT22;2776;51.046;6.772;2022-07-23T10:26:54;24.50;99.90
5508;DHT22;2776;51.046;6.772;2022-07-23T10:29:34;24.40;99.90
5508;DHT22;2776;51.046;6.772;2022-07-23T10:32:08;24.50;99.90
5508;DHT22;2776;51.046;6.772;2022-07-23T10:34:44;24.50;99.90
5508;DHT22;2776;51.046;6.772;2022-07-23T10:37:17;24.60;99.90
5508;DHT22;2776;51.046;6.772;2022-07-23T10:40:08;24.60;99.90
5508;DHT22;2776;51.046;6.772;2022-07-23T10:42:36;24.70;99.90
5508;DHT22;2776;51.046;6.772;2022-07-23T10:45:22;24.70;99.90
5508;DHT22;2776;51.046;6.772;2022-07-23T10:47:50;24.70;99.90
5508;DHT22;2776;51.046;6.772;2022-07-23T10:50:19;24.60;99.90
5508;DHT22;2776;51.046;6.772;2022-07-23T10:53:14;24.70;99.90
5508;DHT22;2776;51.046;6.772;2022-07-23T10:55:46;24.90;99.90
5508;DHT22;2776;51.046;6.772;2022-07-23T10:58:18;25.00;99.90
5508;DHT22;2776;51.046;6.772;2022-07-23T11:00:45;25.00;99.90
5508;DHT22;2776;51.046;6.772;2022-07-23T11:03:31;25.10;99.90
5508;DHT22;2776;51.046;6.772;2022-07-23T11:06:04;25.10;99.90
5508;DHT22;2776;51.046;6.772;2022-07-23T11:08:31;25.10;99.90
5508;DHT22;2776;51.046;6.772;2022-07-23T11:11:10;25.10;99.90
5508;DHT22;2776;51.046;6.772;2022-07-23T11:13:40;25.30;99.90
5508;DHT22;2776;51.046;6.772;2022-07-23T11:16:12;25.40;99.90
5508;DHT22;2776;51.046;6.772;2022-07-23T11:19:06;25.40;99.90
5508;DHT22;2776;51.046;6.772;2022-07-23T11:21:46;25.40;99.90
5508;DHT22;2776;51.046;6.772;2022-07-23T11:24:16;25.50;99.90
5508;DHT22;2776;51.046;6.772;2022-07-23T11:26:48;25.50;99.90
5508;DHT22;2776;51.046;6.772;2022-07-23T11:29:44;25.60;99.90
5508;DHT22;2776;51.046;6.772;2022-07-23T11:32:28;25.70;99.90
5508;DHT22;2776;51.046;6.772;2022-07-23T11:34:55;25.70;99.90
5508;DHT22;2776;51.046;6.772;2022-07-23T11:37:34;25.70;99.90
5508;DHT22;2776;51.046;6.772;2022-07-23T11:40:05;25.70;99.90
5508;DHT22;2776;51.046;6.772;2022-07-23T11:42:34;25.70;94.70
5508;DHT22;2776;51.046;6.772;2022-07-23T11:45:02;25.70;91.20
5508;DHT22;2776;51.046;6.772;2022-07-23T11:47:29;25.60;92.20
5508;DHT22;2776;51.046;6.772;2022-07-23T11:49:57;25.70;92.30
5508;DHT22;2776;51.046;6.772;2022-07-23T11:52:26;25.70;91.30
5508;DHT22;2776;51.046;6.772;2022-07-23T11:54:55;25.70;91.30
5508;DHT22;2776;51.046;6.772;2022-07-23T11:57:24;25.70;91.30
5508;DHT22;2776;51.046;6.772;2022-07-23T11:59:55;25.70;90.30
5508;DHT22;2776;51.046;6.772;2022-07-23T12:02:23;25.60;89.40
5508;DHT22;2776;51.046;6.772;2022-07-23T12:04:51;25.70;86.20
5508;DHT22;2776;51.046;6.772;2022-07-23T12:07:29;25.60;88.60
5508;DHT22;2776;51.046;6.772;2022-07-23T12:09:57;25.60;88.10
5508;DHT22;2776;51.046;6.772;2022-07-23T12:12:24;25.60;85.40
5508;DHT22;2776;51.046;6.772;2022-07-23T12:14:55;25.50;90.10
5508;DHT22;2776;51.046;6.772;2022-07-23T12:17:28;25.60;90.40
5508;DHT22;2776;51.046;6.772;2022-07-23T12:19:57;25.70;84.80
5508;DHT22;2776;51.046;6.772;2022-07-23T12:22:26;25.80;87.20
5508;DHT22;2776;51.046;6.772;2022-07-23T12:24:55;25.80;82.90
5508;DHT22;2776;51.046;6.772;2022-07-23T12:27:22;25.70;79.00
5508;DHT22;2776;51.046;6.772;2022-07-23T12:29:49;25.80;83.10
5508;DHT22;2776;51.046;6.772;2022-07-23T12:32:19;25.80;85.80
5508;DHT22;2776;51.046;6.772;2022-07-23T12:34:51;26.00;79.50
5508;DHT22;2776;51.046;6.772;2022-07-23T12:37:29;26.10;78.50
5508;DHT22;2776;51.046;6.772;2022-07-23T12:39:56;26.10;84.40
5508;DHT22;2776;51.046;6.772;2022-07-23T12:42:23;26.20;76.90
5508;DHT22;2776;51.046;6.772;2022-07-23T12:45:05;26.20;74.00
5508;DHT22;2776;51.046;6.772;2022-07-23T12:47:55;26.20;75.00
5508;DHT22;2776;51.046;6.772;2022-07-23T12:50:54;26.30;83.40
5508;DHT22;2776;51.046;6.772;2022-07-23T12:53:23;26.40;75.50
5508;DHT22;2776;51.046;6.772;2022-07-23T12:56:01;26.40;72.20
5508;DHT22;2776;51.046;6.772;2022-07-23T12:58:40;26.40;70.00
5508;DHT22;2776;51.046;6.772;2022-07-23T13:01:07;26.50;72.60
5508;DHT22;2776;51.046;6.772;2022-07-23T13:03:39;26.50;70.60
5508;DHT22;2776;51.046;6.772;2022-07-23T13:06:08;26.50;70.50
5508;DHT22;2776;51.046;6.772;2022-07-23T13:08:37;26.60;67.20
5508;DHT22;2776;51.046;6.772;2022-07-23T13:11:05;26.60;68.20
5508;DHT22;2776;51.046;6.772;2022-07-23T13:13:34;26.60;71.30
5508;DHT22;2776;51.046;6.772;2022-07-23T13:16:01;26.60;66.50
5508;DHT22;2776;51.046;6.772;2022-07-23T13:18:29;26.60;71.90
5508;DHT22;2776;51.046;6.772;2022-07-23T13:20:57;26.60;68.20
5508;DHT22;2776;51.046;6.772;2022-07-23T13:23:24;26.60;66.30
5508;DHT22;2776;51.046;6.772;2022-07-23T13:25:51;26.60;71.40
5508;DHT22;2776;51.046;6.772;2022-07-23T13:28:19;26.60;69.10
5508;DHT22;2776;51.046;6.772;2022-07-23T13:30:47;26.70;70.40
5508;DHT22;2776;51.046;6.772;2022-07-23T13:33:15;26.70;69.50
5508;DHT22;2776;51.046;6.772;2022-07-23T13:35:42;26.70;71.20
5508;DHT22;2776;51.046;6.772;2022-07-23T13:38:11;26.80;64.20
5508;DHT22;2776;51.046;6.772;2022-07-23T13:40:39;26.70;63.00
5508;DHT22;2776;51.046;6.772;2022-07-23T13:43:08;26.70;65.70
5508;DHT22;2776;51.046;6.772;2022-07-23T13:45:35;26.70;70.20
5508;DHT22;2776;51.046;6.772;2022-07-23T13:48:04;26.80;74.00
5508;DHT22;2776;51.046;6.772;2022-07-23T13:50:31;26.80;68.20
5508;DHT22;2776;51.046;6.772;2022-07-23T13:53:01;26.70;66.10
5508;DHT22;2776;51.046;6.772;2022-07-23T13:55:29;26.80;68.50
5508;DHT22;2776;51.046;6.772;2022-07-23T13:57:56;26.70;65.00
5508;DHT22;2776;51.046;6.772;2022-07-23T14:00:24;26.80;65.50
5508;DHT22;2776;51.046;6.772;2022-07-23T14:02:51;26.80;65.50
5508;DHT22;2776;51.046;6.772;2022-07-23T14:05:18;26.80;67.60
5508;DHT22;2776;51.046;6.772;2022-07-23T14:07:44;26.80;66.70
5508;DHT22;2776;51.046;6.772;2022-07-23T14:10:12;26.80;63.60
5508;DHT22;2776;51.046;6.772;2022-07-23T14:12:41;26.90;65.10
5508;DHT22;2776;51.046;6.772;2022-07-23T14:15:08;26.90;64.80
5508;DHT22;2776;51.046;6.772;2022-07-23T14:17:36;27.00;67.60
5508;DHT22;2776;51.046;6.772;2022-07-23T14:20:04;26.90;64.40
5508;DHT22;2776;51.046;6.772;2022-07-23T14:22:31;27.00;66.70
5508;DHT22;2776;51.046;6.772;2022-07-23T14:24:58;27.00;67.80
5508;DHT22;2776;51.046;6.772;2022-07-23T14:27:26;27.10;70.60
5508;DHT22;2776;51.046;6.772;2022-07-23T14:29:56;27.00;61.90
5508;DHT22;2776;51.046;6.772;2022-07-23T14:32:23;27.00;66.30
5508;DHT22;2776;51.046;6.772;2022-07-23T14:34:50;27.00;64.00
5508;DHT22;2776;51.046;6.772;2022-07-23T14:37:18;27.00;65.40
5508;DHT22;2776;51.046;6.772;2022-07-23T14:39:45;27.00;65.70
5508;DHT22;2776;51.046;6.772;2022-07-23T14:42:14;27.00;63.80
5508;DHT22;2776;51.046;6.772;2022-07-23T14:44:41;27.00;60.20
5508;DHT22;2776;51.046;6.772;2022-07-23T14:47:10;27.00;61.60
5508;DHT22;2776;51.046;6.772;2022-07-23T14:49:36;26.90;61.70
5508;DHT22;2776;51.046;6.772;2022-07-23T14:52:04;26.80;60.80
5508;DHT22;2776;51.046;6.772;2022-07-23T14:54:31;26.90;61.20
5508;DHT22;2776;51.046;6.772;2022-07-23T14:56:59;27.00;59.40
5508;DHT22;2776;51.046;6.772;2022-07-23T14:59:28;27.00;57.90
5508;DHT22;2776;51.046;6.772;2022-07-23T15:01:56;27.00;57.60
5508;DHT22;2776;51.046;6.772;2022-07-23T15:04:24;27.00;63.50
5508;DHT22;2776;51.046;6.772;2022-07-23T15:06:51;27.00;69.70
5508;DHT22;2776;51.046;6.772;2022-07-23T15:09:18;27.10;65.00
5508;DHT22;2776;51.046;6.772;2022-07-23T15:11:45;27.20;63.30
5508;DHT22;2776;51.046;6.772;2022-07-23T15:14:11;27.20;59.80
5508;DHT22;2776;51.046;6.772;2022-07-23T15:16:38;27.10;59.10
5508;DHT22;2776;51.046;6.772;2022-07-23T15:19:05;27.10;58.50
5508;DHT22;2776;51.046;6.772;2022-07-23T15:21:33;27.00;62.20
5508;DHT22;2776;51.046;6.772;2022-07-23T15:24:00;27.00;59.50
5508;DHT22;2776;51.046;6.772;2022-07-23T15:26:27;27.00;60.20
5508;DHT22;2776;51.046;6.772;2022-07-23T15:28:55;27.00;60.80
5508;DHT22;2776;51.046;6.772;2022-07-23T15:31:24;26.90;58.70
5508;DHT22;2776;51.046;6.772;2022-07-23T15:33:51;26.90;58.70
5508;DHT22;2776;51.046;6.772;2022-07-23T15:36:18;27.00;62.50
5508;DHT22;2776;51.046;6.772;2022-07-23T15:38:47;27.00;65.10
5508;DHT22;2776;51.046;6.772;2022-07-23T15:41:14;27.00;72.00
5508;DHT22;2776;51.046;6.772;2022-07-23T15:43:41;27.00;64.30
5508;DHT22;2776;51.046;6.772;2022-07-23T15:46:07;27.00;63.70
5508;DHT22;2776;51.046;6.772;2022-07-23T15:48:35;27.00;69.70
5508;DHT22;2776;51.046;6.772;2022-07-23T15:51:02;27.00;62.50
5508;DHT22;2776;51.046;6.772;2022-07-23T15:53:29;27.00;64.90
5508;DHT22;2776;51.046;6.772;2022-07-23T15:55:58;27.00;62.60
5508;DHT22;2776;51.046;6.772;2022-07-23T15:58:24;27.00;59.00
5508;DHT22;2776;51.046;6.772;2022-07-23T16:00:53;26.90;59.30
5508;DHT22;2776;51.046;6.772;2022-07-23T16:03:20;26.90;60.00
5508;DHT22;2776;51.046;6.772;2022-07-23T16:05:46;26.90;59.70
5508;DHT22;2776;51.046;6.772;2022-07-23T16:08:14;26.90;61.30
5508;DHT22;2776;51.046;6.772;2022-07-23T16:10:40;26.90;59.10